logo tempoitalia

Diretta Meteo Akron -Washington, Stati Uniti (USA)domenica 30 agosto ore 22:53

Mappa
Sereno 17 °C Sereno 24 Ore: T.min 14 T.max 29
Ponente Ovest Km/h 14.8 Punto di rugiada: 11 °C Umidità: 67% Visibilità: 10 Km
Il sole sorge alle: 06:18 Il sole tramonta alle: 19:27
30 Agosto 2026 22:53 tempo osservato: Sereno Sereno 17 67 1019 vento: Nord O 14.8
30 Agosto 2026 21:53 tempo osservato: Sereno Sereno 18 67 1019 vento: Nord O 13
30 Agosto 2026 20:53 tempo osservato: Sereno Sereno 19 63 1018 vento: Nord S/SO 11.1
30 Agosto 2026 19:53 tempo osservato: Nuvoloso Nuvoloso 21 56 1018 vento: Nord SO 9.3
30 Agosto 2026 18:53 tempo osservato: Pioggia Pioggia 22 53 1019 vento: Nord O 22.2
30 Agosto 2026 17:53 tempo osservato: Poco Nuvoloso Poco Nuvoloso 24 38 1018 vento: Nord O/NO 20.3
30 Agosto 2026 16:53 tempo osservato: Sereno Sereno 27 30 1017 vento: Nord NO 31.5
30 Agosto 2026 15:53 tempo osservato: Sereno Sereno 29 32 1017 vento: Nord NO 24
30 Agosto 2026 14:53 tempo osservato: Sereno Sereno 29 28 1016 vento: Nord N 0
30 Agosto 2026 13:53 tempo osservato: Sereno Sereno 29 30 1017 vento: Nord SO 13
30 Agosto 2026 12:53 tempo osservato: Sereno Sereno 28 34 1017 vento: Nord SO 13
30 Agosto 2026 11:53 tempo osservato: Sereno Sereno 26 39 1018 vento: Nord O 16.7
30 Agosto 2026 10:53 tempo osservato: Sereno Sereno 27 36 1018 vento: Nord O/NO 16.7
30 Agosto 2026 09:53 tempo osservato: Sereno Sereno 25 41 1018 vento: Nord O/NO 20.3
30 Agosto 2026 08:53 tempo osservato: Sereno Sereno 23 46 1018 vento: Nord O 22.2
30 Agosto 2026 07:53 tempo osservato: Sereno Sereno 19 59 1017 vento: Nord O 18.5
30 Agosto 2026 06:53 tempo osservato: Sereno Sereno 17 67 1017 vento: Nord O/SO 16.7
30 Agosto 2026 05:53 tempo osservato: Sereno Sereno 16 72 1017 vento: Nord SO 14.8
30 Agosto 2026 04:53 tempo osservato: Sereno Sereno 16 72 1017 vento: Nord SO 14.8
30 Agosto 2026 03:53 tempo osservato: Sereno Sereno 14 82 1017 vento: Nord O 7.4
30 Agosto 2026 02:53 tempo osservato: Sereno Sereno 15 76 1016 vento: Nord S 13
30 Agosto 2026 01:53 tempo osservato: Sereno Sereno 15 76 1017 vento: Nord SO 14.8
30 Agosto 2026 00:53 tempo osservato: Sereno Sereno 16 72 1017 vento: Nord N 0
29 Agosto 2026 23:53 tempo osservato: Sereno Sereno 17 72 1017 vento: Nord N/NO 14.8